createdAt,value
2023-05-09T00:01:54.685Z,9.30
2023-05-09T00:04:22.668Z,11.60
2023-05-09T00:06:50.742Z,9.60
2023-05-09T00:09:18.981Z,11.90
2023-05-09T00:11:46.980Z,13.10
2023-05-09T00:14:14.971Z,10.20
2023-05-09T00:16:43.026Z,10.10
2023-05-09T00:19:11.294Z,11.40
2023-05-09T00:21:39.355Z,10.00
2023-05-09T00:24:07.338Z,12.50
2023-05-09T00:26:35.282Z,12.00
2023-05-09T00:29:03.177Z,13.30
2023-05-09T00:31:31.584Z,13.00
2023-05-09T00:33:59.491Z,11.30
2023-05-09T00:36:27.403Z,12.20
2023-05-09T00:38:55.447Z,11.50
2023-05-09T00:41:23.380Z,11.60
2023-05-09T00:43:51.257Z,11.30
2023-05-09T00:46:19.299Z,12.20
2023-05-09T00:48:47.362Z,13.80
2023-05-09T00:51:15.940Z,10.60
2023-05-09T00:53:45.353Z,12.50
2023-05-09T00:56:14.833Z,13.20
2023-05-09T00:58:43.630Z,9.90
2023-05-09T01:01:12.175Z,12.60
2023-05-09T01:03:41.617Z,14.40
2023-05-09T01:06:41.288Z,13.90
2023-05-09T01:10:02.780Z,11.90
2023-05-09T01:12:36.487Z,12.00
2023-05-09T01:18:08.014Z,16.40
2023-05-09T01:20:47.314Z,13.00
2023-05-09T01:23:33.370Z,17.50
2023-05-09T01:26:33.513Z,16.10
2023-05-09T01:29:19.569Z,19.50
2023-05-09T01:31:49.311Z,16.70
2023-05-09T01:34:18.644Z,15.00
2023-05-09T01:36:49.199Z,14.10
2023-05-09T01:39:19.239Z,13.10
2023-05-09T01:41:49.671Z,13.80
2023-05-09T01:44:18.599Z,14.30
2023-05-09T01:46:47.652Z,14.70
2023-05-09T01:49:18.347Z,13.50
2023-05-09T01:51:48.282Z,11.80
2023-05-09T01:54:17.731Z,14.30
2023-05-09T01:56:46.930Z,10.90
2023-05-09T01:59:16.448Z,13.60
2023-05-09T02:01:46.958Z,13.40
2023-05-09T02:04:17.230Z,13.80
2023-05-09T02:06:50.676Z,11.00
2023-05-09T02:09:20.207Z,15.40
2023-05-09T02:11:48.137Z,11.80
2023-05-09T02:14:16.107Z,12.80
2023-05-09T02:16:44.353Z,25.50
2023-05-09T02:19:12.268Z,16.90
2023-05-09T02:21:41.357Z,16.30
2023-05-09T02:24:09.620Z,14.00
2023-05-09T02:26:38.591Z,14.10
2023-05-09T02:29:07.847Z,16.60
2023-05-09T02:31:36.939Z,15.30
2023-05-09T02:34:05.645Z,15.40
2023-05-09T02:36:36.246Z,14.70
2023-05-09T02:39:04.200Z,17.50
2023-05-09T02:41:32.089Z,14.70
2023-05-09T02:44:00.098Z,16.30
2023-05-09T02:46:28.109Z,13.30
2023-05-09T02:48:56.089Z,13.60
2023-05-09T02:51:25.197Z,13.20
2023-05-09T02:53:53.190Z,13.40
2023-05-09T02:56:21.406Z,13.40
2023-05-09T02:58:51.436Z,18.40
2023-05-09T03:01:19.752Z,15.30
2023-05-09T03:03:47.867Z,18.30
2023-05-09T03:06:16.456Z,17.10
2023-05-09T03:08:44.409Z,15.50
2023-05-09T03:11:13.779Z,13.90
2023-05-09T03:13:42.566Z,15.20
2023-05-09T03:16:14.681Z,19.50
2023-05-09T03:18:42.930Z,15.70
2023-05-09T03:21:11.096Z,17.20
2023-05-09T03:23:39.951Z,18.60
2023-05-09T03:26:07.930Z,17.60
2023-05-09T03:28:36.894Z,17.30
2023-05-09T03:31:06.370Z,17.40
2023-05-09T03:33:34.403Z,19.90
2023-05-09T03:36:02.785Z,21.60
2023-05-09T03:38:30.680Z,20.20
2023-05-09T03:40:58.773Z,18.00
2023-05-09T03:43:27.102Z,17.00
2023-05-09T03:45:55.002Z,18.40
2023-05-09T03:48:23.449Z,22.10
2023-05-09T03:50:52.353Z,21.00
2023-05-09T03:53:20.766Z,22.70
2023-05-09T03:55:49.855Z,43.70
2023-05-09T03:58:19.429Z,32.80
2023-05-09T04:00:47.869Z,26.90
2023-05-09T04:03:18.047Z,22.10
2023-05-09T04:05:47.784Z,16.60
2023-05-09T04:08:24.342Z,13.00
2023-05-09T04:10:53.090Z,16.90
2023-05-09T04:13:21.375Z,15.00
2023-05-09T04:15:49.826Z,15.00
2023-05-09T04:18:17.815Z,15.30
2023-05-09T04:20:46.463Z,21.00
2023-05-09T04:23:15.258Z,20.40
2023-05-09T04:25:43.821Z,20.90
2023-05-09T04:28:11.895Z,18.90
2023-05-09T04:30:40.303Z,16.40
2023-05-09T04:33:08.392Z,17.80
2023-05-09T04:35:36.390Z,16.40
2023-05-09T04:38:04.951Z,15.60
2023-05-09T04:40:33.319Z,12.60
2023-05-09T04:43:01.580Z,14.00
2023-05-09T04:45:31.903Z,10.30
2023-05-09T04:48:00.836Z,11.70
2023-05-09T04:50:30.260Z,12.40
2023-05-09T04:52:58.109Z,12.30
2023-05-09T04:55:26.347Z,11.50
2023-05-09T04:57:54.862Z,11.90
2023-05-09T05:00:22.964Z,11.70
2023-05-09T05:02:51.268Z,11.30
2023-05-09T05:05:25.197Z,12.50
2023-05-09T05:07:54.337Z,10.90
2023-05-09T05:10:24.122Z,11.60
2023-05-09T05:12:55.692Z,10.20
2023-05-09T05:15:24.712Z,10.50
2023-05-09T05:17:52.982Z,13.60
2023-05-09T05:20:22.805Z,11.00
2023-05-09T05:22:51.668Z,12.40
2023-05-09T05:25:20.158Z,10.20
2023-05-09T05:27:48.757Z,13.90
2023-05-09T05:30:17.199Z,11.40
2023-05-09T05:32:45.840Z,12.30
2023-05-09T05:35:15.150Z,12.00
2023-05-09T05:37:44.294Z,12.30
2023-05-09T05:40:12.481Z,15.70
2023-05-09T05:42:42.272Z,10.50
2023-05-09T05:45:12.456Z,11.00
2023-05-09T05:47:42.266Z,10.30
2023-05-09T05:50:12.173Z,12.10
2023-05-09T05:52:41.616Z,21.40
2023-05-09T05:55:11.632Z,11.50
2023-05-09T05:57:39.726Z,14.50
2023-05-09T06:00:11.411Z,9.10
2023-05-09T06:02:45.413Z,9.50
2023-05-09T06:05:18.961Z,8.50
2023-05-09T06:07:47.052Z,7.80
2023-05-09T06:10:17.140Z,15.20
2023-05-09T06:12:45.654Z,11.30
2023-05-09T06:15:13.801Z,9.60
2023-05-09T06:17:44.806Z,9.40
2023-05-09T06:20:12.913Z,8.00
2023-05-09T06:22:40.963Z,7.10
2023-05-09T06:25:10.665Z,6.80
2023-05-09T06:27:38.825Z,8.70
2023-05-09T06:30:23.788Z,8.00
2023-05-09T06:32:53.832Z,7.60
2023-05-09T06:35:22.088Z,8.00
2023-05-09T06:37:50.710Z,9.20
2023-05-09T06:40:18.713Z,10.70
2023-05-09T06:42:46.738Z,12.00
2023-05-09T06:45:16.251Z,9.10
2023-05-09T06:47:44.591Z,7.30
2023-05-09T06:50:12.549Z,7.20
2023-05-09T06:52:40.474Z,9.80
2023-05-09T06:55:09.228Z,9.70
2023-05-09T06:57:39.401Z,9.50
2023-05-09T07:00:07.870Z,10.30
2023-05-09T07:02:35.916Z,8.50
2023-05-09T07:05:04.147Z,9.00
2023-05-09T07:07:32.179Z,6.70
2023-05-09T07:10:10.519Z,8.30
2023-05-09T07:12:40.358Z,6.20
2023-05-09T07:15:08.942Z,8.90
2023-05-09T07:17:36.873Z,11.10
2023-05-09T07:20:06.056Z,9.40
2023-05-09T07:22:36.398Z,6.40
2023-05-09T07:25:07.801Z,10.40
2023-05-09T07:27:36.894Z,8.30
2023-05-09T07:30:06.072Z,7.30
2023-05-09T07:32:34.106Z,11.30
2023-05-09T07:35:03.308Z,10.20
2023-05-09T07:37:31.361Z,8.20
2023-05-09T07:39:59.343Z,7.50
2023-05-09T07:42:27.320Z,11.00
2023-05-09T07:44:55.373Z,11.10
2023-05-09T07:47:23.519Z,6.50
2023-05-09T07:49:51.876Z,6.90
2023-05-09T07:52:19.781Z,10.00
2023-05-09T07:54:47.672Z,8.80
2023-05-09T07:57:16.440Z,7.80
2023-05-09T07:59:44.420Z,8.30
2023-05-09T08:02:12.352Z,9.20
2023-05-09T08:04:41.592Z,9.40
2023-05-09T08:07:09.813Z,6.60
2023-05-09T08:09:37.767Z,7.80
2023-05-09T08:12:06.102Z,7.20
2023-05-09T08:14:34.105Z,7.00
2023-05-09T08:17:01.969Z,6.90
2023-05-09T08:19:29.955Z,7.80
2023-05-09T08:21:57.974Z,10.10
2023-05-09T08:24:25.860Z,6.30
2023-05-09T08:26:53.891Z,5.20
2023-05-09T08:29:21.762Z,7.20
2023-05-09T08:31:49.827Z,6.30
2023-05-09T08:34:17.874Z,5.00
2023-05-09T08:36:47.056Z,7.70
2023-05-09T08:39:15.083Z,9.10
2023-05-09T08:41:43.650Z,6.40
2023-05-09T08:44:11.774Z,10.10
2023-05-09T08:46:43.761Z,7.00
2023-05-09T08:49:12.365Z,7.10
2023-05-09T08:51:40.974Z,7.80
2023-05-09T08:54:10.571Z,8.20
2023-05-09T08:56:39.094Z,7.80
2023-05-09T08:59:07.223Z,5.60
2023-05-09T09:01:38.379Z,9.90
2023-05-09T09:04:07.863Z,10.10
2023-05-09T09:06:36.446Z,5.70
2023-05-09T09:09:07.205Z,5.40
2023-05-09T09:11:36.111Z,6.60
2023-05-09T09:14:13.882Z,5.80
2023-05-09T09:16:44.706Z,5.50
2023-05-09T09:19:16.392Z,6.10
2023-05-09T09:21:51.133Z,6.50
2023-05-09T09:24:22.975Z,6.10
2023-05-09T09:26:52.014Z,5.90
2023-05-09T09:29:23.285Z,6.80
2023-05-09T09:31:57.170Z,8.10
2023-05-09T09:34:25.438Z,9.50
2023-05-09T09:36:53.458Z,7.10
2023-05-09T09:39:22.127Z,5.20
2023-05-09T09:41:50.247Z,5.10
2023-05-09T09:44:19.223Z,7.20
2023-05-09T09:46:53.084Z,6.50
2023-05-09T09:49:22.769Z,8.90
2023-05-09T09:51:59.730Z,7.80
2023-05-09T09:54:28.471Z,7.40
2023-05-09T09:56:57.019Z,5.90
2023-05-09T09:59:26.716Z,5.50
2023-05-09T10:02:00.303Z,6.40
2023-05-09T10:07:06.261Z,6.60
2023-05-09T10:09:35.686Z,6.20
2023-05-09T10:12:06.381Z,5.30
2023-05-09T10:14:36.856Z,6.70
2023-05-09T10:17:05.818Z,5.80
2023-05-09T10:19:36.133Z,7.70
2023-05-09T10:22:08.236Z,5.70
2023-05-09T10:24:47.059Z,6.40
2023-05-09T10:27:21.710Z,7.70
2023-05-09T10:29:54.474Z,9.10
2023-05-09T10:32:31.737Z,9.70
2023-05-09T10:35:05.944Z,15.50
2023-05-09T10:37:34.097Z,8.50
2023-05-09T10:40:04.364Z,5.90
2023-05-09T10:42:32.398Z,4.50
2023-05-09T10:45:01.604Z,4.90
2023-05-09T10:47:32.082Z,4.60
2023-05-09T10:50:00.760Z,4.90
2023-05-09T10:52:33.695Z,8.00
2023-05-09T10:55:04.116Z,5.50
2023-05-09T10:57:32.800Z,8.60
2023-05-09T11:00:00.785Z,6.90
2023-05-09T11:02:32.941Z,7.90
2023-05-09T11:05:15.232Z,7.00
2023-05-09T11:07:43.520Z,4.20
2023-05-09T11:10:20.445Z,7.60
2023-05-09T11:13:00.027Z,7.50
2023-05-09T11:15:28.687Z,4.30
2023-05-09T11:18:11.917Z,6.40
2023-05-09T11:20:44.562Z,5.30
2023-05-09T11:23:12.667Z,8.20
2023-05-09T11:25:41.300Z,11.20
2023-05-09T11:28:09.344Z,7.00
2023-05-09T11:30:42.669Z,5.60
2023-05-09T11:33:24.693Z,7.40
2023-05-09T11:36:18.789Z,4.40
2023-05-09T11:41:15.912Z,4.30
2023-05-09T11:43:44.978Z,4.20
2023-05-09T11:46:13.158Z,3.40
2023-05-09T11:48:42.291Z,4.80
2023-05-09T11:51:18.347Z,4.80
2023-05-09T11:53:50.187Z,5.70
2023-05-09T11:56:18.222Z,6.90
2023-05-09T11:58:46.887Z,11.10
2023-05-09T12:01:14.965Z,6.40
2023-05-09T12:03:46.179Z,5.50
2023-05-09T12:06:17.243Z,6.70
2023-05-09T12:08:46.372Z,7.10
2023-05-09T12:11:15.191Z,5.90
2023-05-09T12:13:50.960Z,7.80
2023-05-09T12:16:20.622Z,7.30
2023-05-09T12:18:52.831Z,4.20
2023-05-09T12:21:21.785Z,6.50
2023-05-09T12:23:51.833Z,8.50
2023-05-09T12:26:22.582Z,4.40
2023-05-09T12:28:50.810Z,7.40
2023-05-09T12:31:18.944Z,4.60
2023-05-09T12:33:47.226Z,4.30
2023-05-09T12:36:16.814Z,6.20
2023-05-09T12:38:56.872Z,4.40
2023-05-09T12:43:56.094Z,5.90
2023-05-09T12:46:24.375Z,3.70
2023-05-09T12:48:52.401Z,4.30
2023-05-09T12:51:21.839Z,3.70
2023-05-09T12:53:49.962Z,3.00
2023-05-09T12:56:20.366Z,5.00
2023-05-09T12:58:58.280Z,4.20
2023-05-09T13:01:29.896Z,4.00
2023-05-09T13:04:05.826Z,4.70
2023-05-09T13:06:36.133Z,4.20
2023-05-09T13:09:06.418Z,3.00
2023-05-09T13:11:35.466Z,6.40
2023-05-09T13:14:04.183Z,7.30
2023-05-09T13:16:32.453Z,8.10
2023-05-09T13:19:01.672Z,5.90
2023-05-09T13:21:29.780Z,5.20
2023-05-09T13:23:57.709Z,3.90
2023-05-09T13:26:27.067Z,5.50
2023-05-09T13:28:55.776Z,5.00
2023-05-09T13:31:24.335Z,4.60
2023-05-09T13:33:52.526Z,7.80
2023-05-09T13:36:20.791Z,3.60
2023-05-09T13:38:48.879Z,18.00
2023-05-09T13:41:20.980Z,4.70
2023-05-09T13:43:49.148Z,4.10
2023-05-09T13:46:17.248Z,6.10
2023-05-09T13:48:45.255Z,4.90
2023-05-09T13:51:13.971Z,5.20
2023-05-09T13:53:41.882Z,5.60
2023-05-09T13:56:09.893Z,2.70
2023-05-09T13:58:37.909Z,4.60
2023-05-09T14:01:05.913Z,4.60
2023-05-09T14:03:33.938Z,4.60
2023-05-09T14:06:02.077Z,7.90
2023-05-09T14:08:30.275Z,3.00
2023-05-09T14:10:58.173Z,5.60
2023-05-09T14:13:26.154Z,5.50
2023-05-09T14:15:54.203Z,3.40
2023-05-09T14:18:22.120Z,6.30
2023-05-09T14:20:50.172Z,3.50
2023-05-09T14:23:18.186Z,2.60
2023-05-09T14:25:46.064Z,2.50
2023-05-09T14:28:14.657Z,3.20
2023-05-09T14:30:42.754Z,3.10
2023-05-09T14:33:10.874Z,3.70
2023-05-09T14:35:41.266Z,6.30
2023-05-09T14:38:10.074Z,2.50
2023-05-09T14:40:38.051Z,3.30
2023-05-09T14:43:06.026Z,5.50
2023-05-09T14:45:34.247Z,2.90
2023-05-09T14:48:03.484Z,4.30
2023-05-09T14:50:31.765Z,3.70
2023-05-09T14:53:00.996Z,3.20
2023-05-09T14:55:31.150Z,6.40
2023-05-09T14:57:59.273Z,3.60
2023-05-09T15:00:28.462Z,4.60
2023-05-09T15:02:56.987Z,3.50
2023-05-09T15:05:25.289Z,2.90
2023-05-09T15:07:53.732Z,5.70
2023-05-09T15:10:21.879Z,3.80
2023-05-09T15:12:49.992Z,3.90
2023-05-09T15:15:21.554Z,2.70
2023-05-09T15:17:50.517Z,5.60
2023-05-09T15:20:19.285Z,3.40
2023-05-09T15:22:48.606Z,4.60
2023-05-09T15:25:17.194Z,5.10
2023-05-09T15:27:45.421Z,5.50
2023-05-09T15:30:14.106Z,4.40
2023-05-09T15:32:42.300Z,3.50
2023-05-09T15:35:10.575Z,3.80
2023-05-09T15:37:38.476Z,7.60
2023-05-09T15:40:07.991Z,4.80
2023-05-09T15:42:36.545Z,5.60
2023-05-09T15:45:04.926Z,3.60
2023-05-09T15:47:32.830Z,5.10
2023-05-09T15:50:00.931Z,3.90
2023-05-09T15:52:29.245Z,5.40
2023-05-09T15:54:57.431Z,5.10
2023-05-09T15:57:25.570Z,6.30
2023-05-09T15:59:55.902Z,5.50
2023-05-09T16:02:24.190Z,5.90
2023-05-09T16:04:52.537Z,4.20
2023-05-09T16:07:20.752Z,8.50
2023-05-09T16:09:48.984Z,7.50
2023-05-09T16:12:16.884Z,4.50
2023-05-09T16:14:46.112Z,6.70
2023-05-09T16:17:14.073Z,4.60
2023-05-09T16:19:42.439Z,4.80
2023-05-09T16:22:10.426Z,5.70
2023-05-09T16:24:38.314Z,4.70
2023-05-09T16:27:06.318Z,8.40
2023-05-09T16:29:34.264Z,4.60
2023-05-09T16:32:02.450Z,4.70
2023-05-09T16:34:30.475Z,5.50
2023-05-09T16:36:58.417Z,5.40
2023-05-09T16:39:28.022Z,6.50
2023-05-09T16:41:56.476Z,6.20
2023-05-09T16:44:25.982Z,7.40
2023-05-09T16:46:53.917Z,6.20
2023-05-09T16:49:22.125Z,6.60
2023-05-09T16:51:50.326Z,4.50
2023-05-09T16:54:18.350Z,4.90
2023-05-09T16:56:46.814Z,6.10
2023-05-09T16:59:15.085Z,4.80
2023-05-09T17:01:43.536Z,4.80
2023-05-09T17:04:11.592Z,5.10
2023-05-09T17:06:40.051Z,5.40
2023-05-09T17:09:08.090Z,5.20
2023-05-09T17:11:36.119Z,5.90
2023-05-09T17:14:04.103Z,6.80
2023-05-09T17:16:32.077Z,5.30
2023-05-09T17:19:00.174Z,7.90
2023-05-09T17:21:28.384Z,7.40
2023-05-09T17:23:56.672Z,5.50
2023-05-09T17:26:25.912Z,6.00
2023-05-09T17:28:54.022Z,9.60
2023-05-09T17:31:22.782Z,5.50
2023-05-09T17:33:50.842Z,10.80
2023-05-09T17:36:18.788Z,8.00
2023-05-09T17:38:46.806Z,7.00
2023-05-09T17:41:14.755Z,9.80
2023-05-09T17:43:42.801Z,9.80
2023-05-09T17:46:11.018Z,8.70
2023-05-09T17:48:39.183Z,9.70
2023-05-09T17:51:07.205Z,6.90
2023-05-09T17:53:35.369Z,7.30
2023-05-09T17:56:03.432Z,8.00
2023-05-09T17:58:31.846Z,9.60
2023-05-09T18:00:59.829Z,8.20
2023-05-09T18:03:29.036Z,8.70
2023-05-09T18:05:57.254Z,7.60
2023-05-09T18:08:25.452Z,10.20
2023-05-09T18:10:56.512Z,7.90
2023-05-09T18:13:24.750Z,7.40
2023-05-09T18:15:55.057Z,9.90
2023-05-09T18:18:23.207Z,10.50
2023-05-09T18:20:51.202Z,12.00
2023-05-09T18:23:19.148Z,11.00
2023-05-09T18:25:48.371Z,17.70
2023-05-09T18:28:22.867Z,15.50
2023-05-09T18:30:55.340Z,14.50
2023-05-09T18:33:27.096Z,12.90
2023-05-09T18:35:58.193Z,9.80
2023-05-09T18:38:26.337Z,12.40
2023-05-09T18:40:54.946Z,11.50
2023-05-09T18:43:23.215Z,16.50
2023-05-09T18:45:52.007Z,14.50
2023-05-09T18:48:20.149Z,11.10
2023-05-09T18:50:55.642Z,12.80
2023-05-09T18:53:26.178Z,10.20
2023-05-09T18:55:54.231Z,11.30
2023-05-09T18:58:22.468Z,12.30
2023-05-09T19:00:50.834Z,10.50
2023-05-09T19:03:18.786Z,12.00
2023-05-09T19:05:47.524Z,9.80
2023-05-09T19:08:15.657Z,12.30
2023-05-09T19:10:44.849Z,12.60
2023-05-09T19:13:15.487Z,14.00
2023-05-09T19:15:44.394Z,13.90
2023-05-09T19:18:12.743Z,12.70
2023-05-09T19:20:46.538Z,11.60
2023-05-09T19:23:14.514Z,10.80
2023-05-09T19:25:42.484Z,12.90
2023-05-09T19:28:12.182Z,12.10
2023-05-09T19:30:40.370Z,10.60
2023-05-09T19:33:08.991Z,11.70
2023-05-09T19:35:38.374Z,17.30
2023-05-09T19:38:06.467Z,11.30
2023-05-09T19:40:35.083Z,12.90
2023-05-09T19:43:02.985Z,12.80
2023-05-09T19:45:31.330Z,10.30
2023-05-09T19:47:59.567Z,11.10
2023-05-09T19:50:27.687Z,12.00
2023-05-09T19:52:55.703Z,10.80
2023-05-09T19:55:23.773Z,9.90
2023-05-09T19:57:52.076Z,11.80
2023-05-09T20:00:20.116Z,10.10
2023-05-09T20:02:48.089Z,10.10
2023-05-09T20:05:16.168Z,11.10
2023-05-09T20:07:44.040Z,13.20
2023-05-09T20:10:15.698Z,12.60
2023-05-09T20:12:43.846Z,13.40
2023-05-09T20:15:12.267Z,13.40
2023-05-09T20:17:40.250Z,16.60
2023-05-09T20:20:08.660Z,15.10
2023-05-09T20:22:36.875Z,14.50
2023-05-09T20:25:05.297Z,13.90
2023-05-09T20:27:35.569Z,12.00
2023-05-09T20:30:04.429Z,12.60
2023-05-09T20:32:32.449Z,11.40
2023-05-09T20:35:00.500Z,12.60
2023-05-09T20:37:28.525Z,10.80
2023-05-09T20:39:56.556Z,12.40
2023-05-09T20:42:24.531Z,13.20
2023-05-09T20:44:54.686Z,14.40
2023-05-09T20:47:22.888Z,14.10
2023-05-09T20:49:50.998Z,17.50
2023-05-09T20:52:18.942Z,11.50
2023-05-09T20:54:47.432Z,16.10
2023-05-09T20:57:15.291Z,12.70
2023-05-09T20:59:44.170Z,16.90
2023-05-09T21:02:12.307Z,11.50
2023-05-09T21:04:40.238Z,13.60
2023-05-09T21:07:09.950Z,13.00
2023-05-09T21:09:38.042Z,12.00
2023-05-09T21:12:06.218Z,11.30
2023-05-09T21:14:34.160Z,12.60
2023-05-09T21:17:02.118Z,10.60
2023-05-09T21:19:30.200Z,10.40
2023-05-09T21:21:58.705Z,14.80
2023-05-09T21:24:26.709Z,13.50
2023-05-09T21:26:54.572Z,12.10
2023-05-09T21:29:22.423Z,12.80
2023-05-09T21:31:50.323Z,12.40
2023-05-09T21:34:18.799Z,14.60
2023-05-09T21:36:46.834Z,13.20
2023-05-09T21:39:14.752Z,12.40
2023-05-09T21:41:42.968Z,12.50
2023-05-09T21:44:13.791Z,11.90
2023-05-09T21:46:43.519Z,12.60
2023-05-09T21:49:12.120Z,13.10
2023-05-09T21:51:40.011Z,11.40
2023-05-09T21:54:08.108Z,14.40
2023-05-09T21:56:36.093Z,14.20
2023-05-09T21:59:03.990Z,14.60
2023-05-09T22:01:32.042Z,14.00
2023-05-09T22:04:00.175Z,12.90
2023-05-09T22:06:28.155Z,16.80
2023-05-09T22:08:56.118Z,14.30
2023-05-09T22:11:24.481Z,15.90
2023-05-09T22:13:52.449Z,14.70
2023-05-09T22:16:22.502Z,13.20
2023-05-09T22:18:50.430Z,13.50
2023-05-09T22:21:18.389Z,13.90
2023-05-09T22:23:46.324Z,18.00
2023-05-09T22:26:14.245Z,15.30
2023-05-09T22:28:42.096Z,14.10
2023-05-09T22:31:10.552Z,14.40
2023-05-09T22:33:38.466Z,13.80
2023-05-09T22:36:07.186Z,16.60
2023-05-09T22:38:35.172Z,11.30
2023-05-09T22:41:03.088Z,12.10
2023-05-09T22:43:38.839Z,13.20
2023-05-09T22:46:07.381Z,18.30
2023-05-09T22:48:35.379Z,12.60
2023-05-09T22:51:03.481Z,13.80
2023-05-09T22:53:31.393Z,12.20
2023-05-09T22:55:59.522Z,14.10
2023-05-09T22:58:27.585Z,17.30
2023-05-09T23:00:55.555Z,14.30
2023-05-09T23:03:23.675Z,13.70
2023-05-09T23:05:51.973Z,16.20
2023-05-09T23:08:19.831Z,12.10
2023-05-09T23:10:47.683Z,11.40
2023-05-09T23:13:15.771Z,14.70
2023-05-09T23:15:43.791Z,12.40
2023-05-09T23:18:12.284Z,15.50
2023-05-09T23:20:40.156Z,18.20
2023-05-09T23:23:08.103Z,14.30
2023-05-09T23:25:36.172Z,13.60
2023-05-09T23:28:04.159Z,12.90
2023-05-09T23:30:32.089Z,12.20
2023-05-09T23:32:59.990Z,11.00
2023-05-09T23:35:28.011Z,13.00
2023-05-09T23:37:55.902Z,12.50
2023-05-09T23:40:23.785Z,16.70
2023-05-09T23:42:51.665Z,13.30
2023-05-09T23:45:19.744Z,13.00
2023-05-09T23:47:47.692Z,11.50
2023-05-09T23:50:15.895Z,11.00
2023-05-09T23:52:44.088Z,11.70
2023-05-09T23:55:12.108Z,12.50
2023-05-09T23:57:40.068Z,14.00
